Time;durP1;ratioP1;P1;durP2;ratioP2;P2;SDS_P1;SDS_P2;PMS_P1;PMS_P2;Temp;Humidity;BMP_temperature;BMP_pressure;BME280_temperature;BME280_humidity;BME280_pressure;Samples;Min_cycle;Max_cycle;Signal;HPM_P1;HPM_P2
2022/06/28 00:00:30;;;;;;;0.00;0.00;;;20.30;99.90;;;;;;5014952;28;20156;-74
2022/06/28 00:02:55;;;;;;;0.13;0.13;;;19.90;99.90;;;;;;5015147;28;20533;-75
2022/06/28 00:05:21;;;;;;;1.02;0.43;;;19.90;99.90;;;;;;5014979;28;20157;-75
2022/06/28 00:07:47;;;;;;;0.00;0.00;;;19.60;99.90;;;;;;5013749;28;20026;-74
2022/06/28 00:10:16;;;;;;;0.10;0.10;;;19.70;99.90;;;;;;5013529;28;20123;-74
2022/06/28 00:12:42;;;;;;;0.10;0.10;;;19.80;99.90;;;;;;5014911;28;20030;-75
2022/06/28 00:17:55;;;;;;;0.00;0.00;;;19.70;99.90;;;;;;5014865;28;20037;-74
2022/06/28 00:20:21;;;;;;;0.00;0.00;;;19.80;99.90;;;;;;5014556;28;20420;-75
2022/06/28 00:22:47;;;;;;;0.70;0.20;;;20.00;99.90;;;;;;5014842;28;20034;-74
2022/06/28 00:25:14;;;;;;;0.00;0.00;;;19.90;99.90;;;;;;5013288;28;20021;-75
2022/06/28 00:27:40;;;;;;;0.00;0.00;;;20.00;99.90;;;;;;5014663;28;20101;-74
2022/06/28 00:30:07;;;;;;;0.08;0.08;;;20.00;99.90;;;;;;5014236;28;20442;-75
2022/06/28 00:32:33;;;;;;;0.00;0.00;;;20.10;99.90;;;;;;5014916;28;20053;-75
2022/06/28 00:35:04;;;;;;;0.00;0.00;;;20.20;99.90;;;;;;5014515;28;20496;-74
2022/06/28 00:37:30;;;;;;;0.00;0.00;;;20.40;99.90;;;;;;5014560;28;20028;-74
2022/06/28 00:39:56;;;;;;;0.00;0.00;;;20.40;99.90;;;;;;5014231;28;20021;-74
2022/06/28 00:42:22;;;;;;;0.10;0.10;;;20.30;99.90;;;;;;5013057;28;20077;-75
2022/06/28 00:44:48;;;;;;;0.00;0.00;;;20.20;99.90;;;;;;5014179;28;20436;-75
2022/06/28 00:47:15;;;;;;;0.00;0.00;;;20.20;99.90;;;;;;5013114;28;20026;-75
2022/06/28 00:49:42;;;;;;;0.00;0.00;;;20.00;99.90;;;;;;5014379;28;20413;-75
2022/06/28 00:52:09;;;;;;;0.03;0.03;;;20.10;99.90;;;;;;5014315;28;20018;-74
2022/06/28 00:54:35;;;;;;;0.00;0.00;;;20.00;99.90;;;;;;5014231;28;20037;-75
2022/06/28 00:57:01;;;;;;;0.30;0.30;;;19.70;99.90;;;;;;5013997;28;20026;-74
2022/06/28 00:59:28;;;;;;;0.85;0.22;;;19.70;99.90;;;;;;5013842;28;20493;-75
2022/06/28 01:01:56;;;;;;;0.00;0.00;;;19.60;99.90;;;;;;5012774;28;20022;-75
2022/06/28 01:04:22;;;;;;;0.00;0.00;;;19.60;99.90;;;;;;5013974;28;20029;-74
2022/06/28 01:06:49;;;;;;;0.30;0.30;;;19.50;99.90;;;;;;5013984;28;20022;-75
2022/06/28 01:09:14;;;;;;;0.00;0.00;;;19.40;99.90;;;;;;5013656;28;20053;-75
2022/06/28 01:11:40;;;;;;;0.00;0.00;;;19.50;99.90;;;;;;5013739;28;20108;-75
2022/06/28 01:14:07;;;;;;;0.00;0.00;;;19.30;99.90;;;;;;5013807;28;20026;-74
2022/06/28 01:16:34;;;;;;;0.28;0.28;;;19.20;99.90;;;;;;5013781;28;20017;-74
2022/06/28 01:19:00;;;;;;;0.00;0.00;;;19.10;99.90;;;;;;5013383;28;20382;-74
2022/06/28 01:21:29;;;;;;;0.00;0.00;;;19.10;99.90;;;;;;5013744;28;20021;-74
2022/06/28 01:23:55;;;;;;;0.00;0.00;;;19.30;99.90;;;;;;5013514;28;20065;-74
2022/06/28 01:26:22;;;;;;;0.00;0.00;;;19.20;99.90;;;;;;5013567;28;20068;-75
2022/06/28 01:28:49;;;;;;;0.00;0.00;;;19.20;99.90;;;;;;5013403;28;20034;-75
2022/06/28 01:31:17;;;;;;;0.00;0.00;;;19.30;99.90;;;;;;5013389;28;20099;-74
2022/06/28 01:33:43;;;;;;;0.00;0.00;;;19.60;99.90;;;;;;5012248;28;20430;-75
2022/06/28 01:36:10;;;;;;;0.00;0.00;;;19.70;99.90;;;;;;5013271;28;20101;-75
2022/06/28 01:38:38;;;;;;;0.00;0.00;;;19.70;99.90;;;;;;5013585;28;20041;-74
2022/06/28 01:41:04;;;;;;;0.00;0.00;;;19.60;99.90;;;;;;5013185;28;20500;-74
2022/06/28 01:43:32;;;;;;;0.00;0.00;;;19.60;99.90;;;;;;5013684;28;20014;-74
2022/06/28 01:45:59;;;;;;;0.00;0.00;;;19.80;99.90;;;;;;5013253;28;20460;-75
2022/06/28 01:48:25;;;;;;;0.00;0.00;;;19.90;99.90;;;;;;5011874;28;20022;-75
2022/06/28 01:50:54;;;;;;;0.00;0.00;;;20.00;99.90;;;;;;5012902;28;20030;-75
2022/06/28 01:53:21;;;;;;;0.10;0.10;;;20.10;99.90;;;;;;5013130;28;20101;-74
2022/06/28 01:55:48;;;;;;;0.00;0.00;;;20.10;99.90;;;;;;5013082;28;20037;-76
2022/06/28 01:58:14;;;;;;;0.00;0.00;;;20.10;99.90;;;;;;5012966;28;20101;-75
2022/06/28 02:00:40;;;;;;;0.10;0.10;;;20.10;99.90;;;;;;5011457;28;20026;-74
2022/06/28 02:03:06;;;;;;;0.00;0.00;;;20.10;99.90;;;;;;5012969;28;20152;-75
2022/06/28 02:05:33;;;;;;;0.00;0.00;;;20.20;99.90;;;;;;5012733;28;20026;-74
2022/06/28 02:07:59;;;;;;;0.10;0.10;;;20.30;99.90;;;;;;5011126;28;20025;-75
2022/06/28 02:10:25;;;;;;;0.00;0.00;;;20.30;99.90;;;;;;5012595;28;20025;-74
2022/06/28 02:12:51;;;;;;;0.00;0.00;;;20.20;99.90;;;;;;5013016;28;20025;-74
2022/06/28 02:15:17;;;;;;;0.10;0.10;;;20.30;99.90;;;;;;5012737;28;20374;-75
2022/06/28 02:17:43;;;;;;;0.10;0.10;;;20.20;99.90;;;;;;5012921;28;20407;-75
2022/06/28 02:20:10;;;;;;;0.00;0.00;;;20.20;99.90;;;;;;5011022;28;20044;-74
2022/06/28 02:22:36;;;;;;;0.10;0.10;;;20.00;99.90;;;;;;5011341;28;20037;-75
2022/06/28 02:25:02;;;;;;;0.00;0.00;;;19.70;99.90;;;;;;5012495;28;20022;-74
2022/06/28 02:27:28;;;;;;;0.00;0.00;;;19.90;99.90;;;;;;5012522;28;20384;-75
2022/06/28 02:29:54;;;;;;;0.00;0.00;;;20.00;99.90;;;;;;5012537;28;20097;-74
2022/06/28 02:32:19;;;;;;;0.00;0.00;;;20.20;99.90;;;;;;5012475;28;20038;-74
2022/06/28 02:40:23;;;;;;;0.00;0.00;;;20.30;99.90;;;;;;5012130;28;20034;-75
2022/06/28 02:42:50;;;;;;;0.00;0.00;;;20.20;99.90;;;;;;5012401;28;20496;-75
2022/06/28 02:45:16;;;;;;;0.00;0.00;;;20.20;99.90;;;;;;5012241;28;20445;-74
2022/06/28 02:47:43;;;;;;;0.00;0.00;;;20.20;99.90;;;;;;5012357;28;20026;-75
2022/06/28 02:50:09;;;;;;;0.30;0.30;;;20.20;99.90;;;;;;5012078;28;20441;-74
2022/06/28 02:52:36;;;;;;;0.00;0.00;;;20.30;99.90;;;;;;5010979;28;20034;-75
2022/06/28 02:55:02;;;;;;;0.00;0.00;;;20.20;99.90;;;;;;5012187;28;20033;-74
2022/06/28 02:57:29;;;;;;;0.00;0.00;;;20.20;99.90;;;;;;5010906;28;20397;-74
2022/06/28 02:59:54;;;;;;;0.00;0.00;;;19.90;99.90;;;;;;5012017;28;20128;-74
2022/06/28 03:02:20;;;;;;;0.05;0.05;;;19.60;99.90;;;;;;5010926;28;20118;-74
2022/06/28 03:04:46;;;;;;;0.00;0.00;;;19.50;99.90;;;;;;5012114;28;20113;-75
2022/06/28 03:07:11;;;;;;;0.10;0.10;;;19.50;99.90;;;;;;5010997;28;20041;-75
2022/06/28 03:09:37;;;;;;;0.00;0.00;;;19.40;99.90;;;;;;4994175;28;20120;-75
2022/06/28 03:12:06;;;;;;;0.03;0.03;;;19.50;99.90;;;;;;5011930;28;20500;-76
2022/06/28 03:14:32;;;;;;;0.10;0.10;;;19.50;99.90;;;;;;5012100;28;20037;-75
2022/06/28 03:16:58;;;;;;;0.00;0.00;;;19.60;99.90;;;;;;4994382;28;20022;-74
2022/06/28 03:21:57;;;;;;;0.10;0.10;;;19.70;99.90;;;;;;5012375;28;20050;-72
2022/06/28 03:24:23;;;;;;;0.10;0.10;;;19.50;99.90;;;;;;5014583;28;20060;-75
2022/06/28 03:26:48;;;;;;;0.00;0.00;;;19.50;99.90;;;;;;5015961;28;20018;-75
2022/06/28 03:29:14;;;;;;;0.00;0.00;;;19.50;99.90;;;;;;5014239;28;20030;-75
2022/06/28 03:31:40;;;;;;;0.05;0.05;;;19.50;99.90;;;;;;5014448;28;20026;-75
2022/06/28 03:34:05;;;;;;;0.00;0.00;;;19.50;99.90;;;;;;5015477;28;20030;-74
2022/06/28 03:36:31;;;;;;;0.05;0.05;;;19.40;99.90;;;;;;5014480;28;20034;-75
2022/06/28 03:38:57;;;;;;;0.10;0.10;;;19.40;99.90;;;;;;5015348;28;20026;-75
2022/06/28 03:41:23;;;;;;;0.00;0.00;;;19.50;99.90;;;;;;5015584;28;20469;-72
2022/06/28 03:43:50;;;;;;;0.00;0.00;;;19.50;99.90;;;;;;5014156;28;20029;-72
2022/06/28 03:46:16;;;;;;;0.03;0.03;;;19.60;99.90;;;;;;5014180;28;20050;-72
2022/06/28 03:48:42;;;;;;;0.08;0.08;;;19.50;99.90;;;;;;5014212;28;20030;-72
2022/06/28 03:51:08;;;;;;;0.10;0.10;;;19.40;99.90;;;;;;5014105;28;20084;-72
2022/06/28 03:53:34;;;;;;;0.10;0.10;;;19.40;99.90;;;;;;5015337;28;20033;-72
2022/06/28 03:56:00;;;;;;;0.00;0.00;;;19.50;99.90;;;;;;5015316;28;20030;-72
2022/06/28 03:58:25;;;;;;;0.10;0.10;;;19.50;99.90;;;;;;5015231;28;20037;-72
2022/06/28 04:00:52;;;;;;;0.10;0.10;;;19.50;99.90;;;;;;5014771;28;20505;-73
2022/06/28 04:03:18;;;;;;;0.10;0.10;;;19.50;99.90;;;;;;5013915;28;20182;-72
2022/06/28 04:05:44;;;;;;;0.08;0.08;;;19.70;99.90;;;;;;5014970;28;20026;-72
2022/06/28 04:08:11;;;;;;;0.05;0.05;;;19.70;99.90;;;;;;5014999;28;20084;-72
2022/06/28 04:10:37;;;;;;;0.10;0.10;;;19.50;99.90;;;;;;5013355;28;20416;-72
2022/06/28 04:13:03;;;;;;;0.00;0.00;;;19.30;99.90;;;;;;5013795;28;20018;-73
2022/06/28 04:15:29;;;;;;;0.10;0.10;;;19.20;99.90;;;;;;5013856;28;20508;-73
2022/06/28 04:17:55;;;;;;;0.35;0.35;;;19.20;99.90;;;;;;5014902;28;20034;-73
2022/06/28 04:20:21;;;;;;;0.10;0.10;;;19.30;99.90;;;;;;5014344;28;20056;-73
2022/06/28 04:22:47;;;;;;;0.10;0.10;;;19.50;99.90;;;;;;5014913;28;20022;-72
2022/06/28 04:25:12;;;;;;;0.10;0.10;;;19.50;99.90;;;;;;5014545;28;20030;-73
2022/06/28 04:27:38;;;;;;;0.00;0.00;;;19.70;99.90;;;;;;5014706;28;20026;-73
2022/06/28 04:30:04;;;;;;;0.10;0.10;;;19.50;99.90;;;;;;4996312;28;20477;-73
2022/06/28 04:32:30;;;;;;;0.00;0.00;;;19.50;99.90;;;;;;5013416;28;20097;-73
2022/06/28 04:34:56;;;;;;;0.00;0.00;;;19.60;99.90;;;;;;5013340;28;20108;-73
2022/06/28 04:37:22;;;;;;;0.00;0.00;;;19.70;99.90;;;;;;5013281;28;20025;-73
2022/06/28 04:39:48;;;;;;;0.08;0.08;;;19.60;99.90;;;;;;5014192;28;20022;-73
2022/06/28 04:42:14;;;;;;;0.10;0.10;;;19.50;99.90;;;;;;5013173;28;20485;-73
2022/06/28 04:44:41;;;;;;;0.00;0.00;;;19.30;99.90;;;;;;4996532;28;20026;-73
2022/06/28 04:47:08;;;;;;;0.10;0.10;;;19.40;99.90;;;;;;5013058;28;20022;-73
2022/06/28 04:49:34;;;;;;;0.00;0.00;;;19.40;99.90;;;;;;5014024;28;20547;-73
2022/06/28 04:52:00;;;;;;;0.00;0.00;;;19.20;99.90;;;;;;5012970;28;20101;-73
2022/06/28 04:54:26;;;;;;;0.00;0.00;;;19.30;99.90;;;;;;5012896;28;20054;-73
2022/06/28 04:56:52;;;;;;;0.25;0.22;;;19.30;99.90;;;;;;5014081;28;20033;-73
2022/06/28 04:59:18;;;;;;;0.10;0.10;;;19.50;99.90;;;;;;5012599;28;20042;-73
2022/06/28 05:01:44;;;;;;;0.00;0.00;;;19.60;99.90;;;;;;5012732;28;20122;-73
2022/06/28 05:04:10;;;;;;;0.10;0.10;;;19.70;99.90;;;;;;5013876;28;20029;-73
2022/06/28 05:06:36;;;;;;;0.03;0.03;;;19.70;99.90;;;;;;5013912;28;20025;-73
2022/06/28 05:09:02;;;;;;;0.00;0.00;;;19.70;99.90;;;;;;5006494;28;20046;-74
2022/06/28 05:11:29;;;;;;;0.32;0.17;;;19.80;99.90;;;;;;5002762;28;20037;-74
2022/06/28 05:13:55;;;;;;;0.13;0.13;;;19.80;99.90;;;;;;4989919;28;20040;-74
2022/06/28 05:16:21;;;;;;;0.00;0.00;;;19.90;99.90;;;;;;5013923;28;20022;-74
2022/06/28 05:18:47;;;;;;;0.10;0.10;;;19.80;99.90;;;;;;5009893;28;20095;-74
2022/06/28 05:21:13;;;;;;;0.10;0.10;;;20.00;99.90;;;;;;5013079;28;20034;-74
2022/06/28 05:23:39;;;;;;;0.05;0.05;;;19.70;99.90;;;;;;5012557;28;20104;-73
2022/06/28 05:26:05;;;;;;;0.10;0.10;;;19.60;99.90;;;;;;5005219;28;20026;-72
2022/06/28 05:28:30;;;;;;;0.43;0.43;;;19.80;99.90;;;;;;4994006;28;20165;-72
2022/06/28 05:30:57;;;;;;;0.10;0.10;;;19.70;99.90;;;;;;4993694;28;20052;-73
2022/06/28 05:33:23;;;;;;;0.10;0.10;;;19.70;99.90;;;;;;4993990;28;20049;-72
2022/06/28 05:35:49;;;;;;;0.43;0.35;;;19.80;99.90;;;;;;5003808;28;20037;-73
2022/06/28 05:38:15;;;;;;;0.10;0.10;;;20.00;99.90;;;;;;5011861;28;20022;-73
2022/06/28 05:40:42;;;;;;;0.03;0.03;;;19.90;99.90;;;;;;5012660;28;20045;-73
2022/06/28 05:43:08;;;;;;;0.03;0.03;;;19.70;99.90;;;;;;5003635;28;20018;-73
2022/06/28 05:45:34;;;;;;;0.35;0.35;;;19.80;99.90;;;;;;4992291;28;20105;-73
2022/06/28 05:47:59;;;;;;;0.20;0.20;;;19.90;99.90;;;;;;4993574;28;20101;-73
2022/06/28 05:50:25;;;;;;;0.30;0.30;;;19.80;99.90;;;;;;4993290;28;20034;-72
2022/06/28 05:52:52;;;;;;;0.05;0.05;;;19.70;99.90;;;;;;4992138;28;20093;-72
2022/06/28 05:55:18;;;;;;;0.10;0.10;;;19.80;99.90;;;;;;4992047;28;20034;-73
2022/06/28 05:57:44;;;;;;;0.30;0.20;;;19.90;99.90;;;;;;4992018;28;20030;-73
2022/06/28 06:00:10;;;;;;;0.10;0.10;;;19.80;99.90;;;;;;4991818;28;20121;-73
2022/06/28 06:02:36;;;;;;;0.10;0.10;;;20.00;99.90;;;;;;4992200;28;20397;-73
2022/06/28 06:05:03;;;;;;;0.10;0.10;;;20.00;99.90;;;;;;5024769;28;20065;-73
2022/06/28 06:07:30;;;;;;;0.00;0.00;;;20.20;99.90;;;;;;4991807;28;20117;-74
2022/06/28 06:09:56;;;;;;;0.00;0.00;;;20.40;99.90;;;;;;4991723;28;20394;-74
2022/06/28 06:12:22;;;;;;;0.52;0.32;;;20.60;99.90;;;;;;4993376;28;20441;-74
2022/06/28 06:14:48;;;;;;;0.20;0.20;;;20.70;99.90;;;;;;4993139;28;20026;-74
2022/06/28 06:17:14;;;;;;;0.63;0.60;;;20.80;99.90;;;;;;4993042;28;20025;-74
2022/06/28 06:19:40;;;;;;;0.03;0.03;;;20.90;99.90;;;;;;4992645;28;20055;-74
2022/06/28 06:22:06;;;;;;;0.03;0.03;;;20.80;99.90;;;;;;4993014;28;20109;-74
2022/06/28 06:24:32;;;;;;;0.00;0.00;;;20.90;99.90;;;;;;4993272;28;20030;-74
2022/06/28 06:26:58;;;;;;;0.00;0.00;;;20.80;99.90;;;;;;5001549;28;20092;-74
2022/06/28 06:29:24;;;;;;;3.00;1.35;;;20.90;99.90;;;;;;4999140;28;20030;-74
2022/06/28 06:31:50;;;;;;;0.40;0.28;;;21.20;99.90;;;;;;5012174;28;20026;-73
2022/06/28 06:34:15;;;;;;;0.55;0.43;;;21.00;99.90;;;;;;5000072;28;20421;-74
2022/06/28 06:36:41;;;;;;;0.10;0.10;;;20.90;99.90;;;;;;4991550;28;20560;-74
2022/06/28 06:39:08;;;;;;;0.22;0.20;;;21.00;99.90;;;;;;4992571;28;20053;-74
2022/06/28 06:41:34;;;;;;;0.10;0.10;;;20.90;99.90;;;;;;4994070;28;20084;-74
2022/06/28 06:44:00;;;;;;;0.43;0.43;;;20.80;99.90;;;;;;5012371;28;20022;-74
2022/06/28 06:46:26;;;;;;;0.10;0.10;;;21.00;99.90;;;;;;5011062;28;20105;-74
2022/06/28 06:48:51;;;;;;;0.00;0.00;;;21.00;99.90;;;;;;5010748;28;20122;-73
2022/06/28 06:51:17;;;;;;;0.17;0.17;;;21.00;99.90;;;;;;5012135;28;20521;-74
2022/06/28 06:53:43;;;;;;;0.10;0.10;;;21.20;99.90;;;;;;5012038;28;20037;-74
2022/06/28 06:56:10;;;;;;;0.28;0.28;;;21.30;99.90;;;;;;4994569;28;20371;-74
2022/06/28 06:58:37;;;;;;;0.65;0.40;;;21.40;99.90;;;;;;4998597;28;20157;-76
2022/06/28 07:01:03;;;;;;;0.05;0.05;;;21.50;99.90;;;;;;4992658;28;20102;-76
2022/06/28 07:03:29;;;;;;;2.05;1.17;;;21.70;99.90;;;;;;4992525;28;20052;-76
2022/06/28 07:05:54;;;;;;;0.10;0.10;;;21.50;99.90;;;;;;4992538;28;20058;-77
2022/06/28 07:08:21;;;;;;;0.10;0.10;;;21.60;99.90;;;;;;4992397;28;20508;-76
2022/06/28 07:10:47;;;;;;;1.40;1.13;;;21.50;99.90;;;;;;4992164;28;20585;-74
2022/06/28 07:13:12;;;;;;;0.35;0.35;;;21.50;99.90;;;;;;4992448;28;20673;-76
2022/06/28 07:15:38;;;;;;;0.20;0.20;;;21.60;99.90;;;;;;4992798;28;20033;-76
2022/06/28 07:18:04;;;;;;;0.20;0.20;;;21.70;99.90;;;;;;4992672;28;20033;-74
2022/06/28 07:20:30;;;;;;;1.35;1.00;;;21.70;99.90;;;;;;4992965;28;20563;-74
2022/06/28 07:22:56;;;;;;;0.30;0.30;;;21.80;99.90;;;;;;4993114;28;20348;-74
2022/06/28 07:25:21;;;;;;;0.10;0.10;;;21.80;99.90;;;;;;4993605;28;20034;-73
2022/06/28 07:27:47;;;;;;;0.47;0.47;;;21.80;99.90;;;;;;4993488;28;20035;-74
2022/06/28 07:30:13;;;;;;;0.20;0.20;;;22.10;99.90;;;;;;4993268;28;20049;-74
2022/06/28 07:32:39;;;;;;;0.17;0.17;;;22.00;99.90;;;;;;4993274;28;20034;-71
2022/06/28 07:35:05;;;;;;;0.00;0.00;;;22.10;99.90;;;;;;4993710;28;20505;-72
2022/06/28 07:37:31;;;;;;;1.75;1.65;;;22.00;99.90;;;;;;4995544;28;20033;-72
2022/06/28 07:39:57;;;;;;;3.40;0.95;;;22.00;99.90;;;;;;4997711;28;20116;-72
2022/06/28 07:42:23;;;;;;;0.00;0.00;;;22.20;99.90;;;;;;5012691;28;20076;-73
2022/06/28 07:44:49;;;;;;;0.10;0.10;;;22.20;99.90;;;;;;5000192;28;20668;-72
2022/06/28 07:47:14;;;;;;;0.10;0.10;;;22.00;99.90;;;;;;4991678;28;20056;-73
2022/06/28 07:52:34;;;;;;;0.00;0.00;;;22.50;99.90;;;;;;4995794;28;20125;-73
2022/06/28 07:55:00;;;;;;;0.30;0.30;;;22.60;99.90;;;;;;5010176;28;20442;-73
2022/06/28 07:57:27;;;;;;;0.00;0.00;;;22.50;99.90;;;;;;5011442;28;20508;-73
2022/06/28 07:59:53;;;;;;;0.32;0.32;;;22.50;99.90;;;;;;5011107;28;20563;-73
2022/06/28 08:02:18;;;;;;;0.00;0.00;;;22.90;99.90;;;;;;5011508;28;20026;-74
2022/06/28 08:04:44;;;;;;;0.10;0.10;;;23.20;99.90;;;;;;5006053;28;20032;-73
2022/06/28 08:07:10;;;;;;;0.05;0.05;;;23.50;99.90;;;;;;4999536;28;20101;-73
2022/06/28 08:09:36;;;;;;;0.38;0.30;;;23.70;99.90;;;;;;5006065;28;20034;-73
2022/06/28 08:12:02;;;;;;;0.38;0.38;;;23.30;99.90;;;;;;5003429;28;20077;-73
2022/06/28 08:14:28;;;;;;;0.98;0.63;;;23.60;99.90;;;;;;5012811;28;20476;-73
2022/06/28 08:16:56;;;;;;;1.90;1.05;;;23.70;99.90;;;;;;5013997;28;20032;-73
2022/06/28 08:19:22;;;;;;;0.70;0.50;;;23.70;99.90;;;;;;5014044;28;20129;-74
2022/06/28 08:21:49;;;;;;;0.08;0.08;;;23.40;99.90;;;;;;5013441;28;20110;-74
2022/06/28 08:24:15;;;;;;;1.45;1.15;;;23.20;99.90;;;;;;5014682;28;20030;-73
2022/06/28 08:26:44;;;;;;;0.45;0.45;;;23.10;99.90;;;;;;5014652;28;20048;-75
2022/06/28 08:29:12;;;;;;;0.30;0.30;;;22.70;99.90;;;;;;5009065;28;20044;-74
2022/06/28 08:31:38;;;;;;;0.10;0.10;;;22.50;99.90;;;;;;4996192;28;20390;-74
2022/06/28 08:34:04;;;;;;;0.22;0.22;;;22.90;99.90;;;;;;4994906;28;20157;-75
2022/06/28 08:36:30;;;;;;;0.32;0.32;;;22.90;99.90;;;;;;5000772;28;20477;-73
2022/06/28 08:38:56;;;;;;;0.15;0.15;;;22.90;99.90;;;;;;5014586;28;20101;-74
2022/06/28 08:41:25;;;;;;;0.00;0.00;;;23.30;99.90;;;;;;5010936;28;20657;-73
2022/06/28 08:43:53;;;;;;;0.08;0.08;;;24.00;99.90;;;;;;5010900;28;20021;-77
2022/06/28 08:46:19;;;;;;;0.52;0.52;;;24.60;99.90;;;;;;5012128;28;20520;-73
2022/06/28 08:48:52;;;;;;;0.13;0.13;;;24.30;99.90;;;;;;5008758;28;20014;-73
2022/06/28 08:51:18;;;;;;;1.23;0.98;;;24.10;99.90;;;;;;4995032;28;20386;-73
2022/06/28 08:53:47;;;;;;;0.25;0.25;;;23.80;99.30;;;;;;5007015;28;20022;-73
2022/06/28 08:56:14;;;;;;;0.00;0.00;;;23.60;99.80;;;;;;5013976;28;20026;-73
2022/06/28 08:58:42;;;;;;;0.98;0.85;;;23.60;99.90;;;;;;4995616;28;20359;-74
2022/06/28 09:01:12;;;;;;;0.20;0.20;;;23.60;99.90;;;;;;4994076;28;20544;-73
2022/06/28 09:03:39;;;;;;;0.63;0.57;;;23.70;99.90;;;;;;4994264;28;20085;-73
2022/06/28 09:06:05;;;;;;;0.82;0.73;;;23.50;99.90;;;;;;5003334;28;20038;-73
2022/06/28 09:08:31;;;;;;;0.00;0.00;;;23.20;99.90;;;;;;5010665;28;20114;-73
2022/06/28 09:10:57;;;;;;;0.38;0.25;;;23.10;99.90;;;;;;4992609;28;20049;-73
2022/06/28 09:13:23;;;;;;;1.17;0.10;;;23.10;99.90;;;;;;4992429;28;20022;-73
2022/06/28 09:16:01;;;;;;;0.10;0.10;;;23.00;99.90;;;;;;4975831;28;20033;-73
2022/06/28 09:18:43;;;;;;;0.35;0.35;;;23.00;99.90;;;;;;4992555;28;20027;-73
2022/06/28 09:21:22;;;;;;;1.10;0.45;;;23.00;99.90;;;;;;5007952;23;20130;-89
2022/06/28 09:23:52;;;;;;;1.25;0.55;;;23.10;99.90;;;;;;4974528;28;20388;-90
2022/06/28 09:26:20;;;;;;;0.00;0.00;;;23.20;99.90;;;;;;4974744;28;20023;-89
2022/06/28 09:28:50;;;;;;;1.23;1.13;;;23.20;99.90;;;;;;4974515;28;20043;-89
2022/06/28 09:31:15;;;;;;;0.17;0.13;;;23.00;99.90;;;;;;4974278;28;20395;-90
2022/06/28 09:34:05;;;;;;;0.30;0.30;;;23.00;99.90;;;;;;4974905;28;20027;-89
2022/06/28 09:36:36;;;;;;;0.00;0.00;;;22.90;99.90;;;;;;4957594;28;20125;-89
2022/06/28 09:39:18;;;;;;;0.10;0.10;;;22.90;99.90;;;;;;4974787;28;20035;-90
2022/06/28 09:41:46;;;;;;;0.75;0.13;;;23.00;99.90;;;;;;4975118;28;20027;-89
2022/06/28 09:44:12;;;;;;;0.00;0.00;;;23.20;99.90;;;;;;4974597;28;20050;-90
2022/06/28 09:46:39;;;;;;;0.00;0.00;;;23.30;99.90;;;;;;4973494;28;20030;-90
2022/06/28 09:49:07;;;;;;;0.08;0.08;;;23.40;99.90;;;;;;4974167;28;20504;-89
2022/06/28 09:51:35;;;;;;;2.80;0.85;;;23.50;99.90;;;;;;4973814;28;20462;-89
2022/06/28 09:54:07;;;;;;;1.38;0.43;;;23.60;99.90;;;;;;4974180;28;20026;-89
2022/06/28 09:56:43;;;;;;;0.20;0.20;;;23.40;99.90;;;;;;4974756;28;20110;-89
2022/06/28 09:59:10;;;;;;;0.00;0.00;;;23.20;99.90;;;;;;4975158;28;20492;-89
2022/06/28 10:01:38;;;;;;;0.63;0.28;;;23.30;99.70;;;;;;4973513;28;20054;-89
2022/06/28 10:07:40;;;;;;;0.57;0.43;;;22.80;99.90;;;;;;4921193;28;20061;-90
2022/06/28 10:10:20;;;;;;;0.22;0.22;;;22.80;99.90;;;;;;4974147;28;20118;-90
2022/06/28 10:15:46;;;;;;;0.03;0.03;;;23.10;99.90;;;;;;4970228;28;20063;-89
2022/06/28 10:18:21;;;;;;;1.65;0.90;;;23.30;99.90;;;;;;4974191;28;20049;-90
2022/06/28 10:21:01;;;;;;;0.00;0.00;;;23.40;99.90;;;;;;4973635;28;20041;-90
2022/06/28 10:23:54;;;;;;;1.38;0.68;;;23.10;99.90;;;;;;4974037;28;20361;-89
2022/06/28 10:26:24;;;;;;;0.13;0.13;;;23.00;99.90;;;;;;4974050;28;20054;-89
2022/06/28 10:29:03;;;;;;;0.77;0.77;;;23.10;99.90;;;;;;4984881;28;20046;-96
2022/06/28 10:31:30;;;;;;;1.45;0.75;;;23.10;99.90;;;;;;4996117;28;20015;-94
2022/06/28 10:33:58;;;;;;;1.13;1.02;;;22.80;99.90;;;;;;4996198;28;20052;-94
2022/06/28 10:36:28;;;;;;;1.00;0.65;;;22.80;99.90;;;;;;4987540;28;20354;-92
2022/06/28 10:39:08;;;;;;;0.20;0.20;;;22.80;99.90;;;;;;4979116;28;20027;-92
2022/06/28 10:41:46;;;;;;;0.10;0.10;;;22.80;99.90;;;;;;4977048;28;20019;-92
2022/06/28 10:44:27;;;;;;;0.38;0.38;;;22.60;99.90;;;;;;4976665;28;20038;-91
2022/06/28 10:47:05;;;;;;;0.95;0.95;;;22.70;99.90;;;;;;4975556;28;20029;-91
2022/06/28 10:49:45;;;;;;;0.30;0.30;;;22.60;99.90;;;;;;4977362;28;20023;-91
2022/06/28 10:52:26;;;;;;;0.52;0.30;;;22.70;99.90;;;;;;4978154;28;20030;-91
2022/06/28 10:54:52;;;;;;;0.93;0.93;;;23.00;99.90;;;;;;4977262;28;20392;-90
2022/06/28 10:57:48;;;;;;;0.20;0.20;;;23.10;99.90;;;;;;4975762;28;20057;-91
2022/06/28 11:00:27;;;;;;;0.13;0.10;;;23.10;99.90;;;;;;4947039;28;20045;-91
2022/06/28 11:02:56;;;;;;;0.10;0.10;;;23.00;99.90;;;;;;4996451;28;20019;-93
2022/06/28 11:05:48;;;;;;;0.30;0.30;;;23.00;99.90;;;;;;4985895;28;20031;-91
2022/06/28 11:08:49;;;;;;;0.20;0.20;;;22.70;99.90;;;;;;4978693;28;20025;-91
2022/06/28 11:11:20;;;;;;;0.10;0.10;;;22.60;99.90;;;;;;4930645;28;20042;-92
2022/06/28 11:14:27;;;;;;;0.15;0.15;;;22.60;99.90;;;;;;4976599;28;20062;-91
2022/06/28 11:16:57;;;;;;;1.30;1.20;;;22.80;99.90;;;;;;4975850;28;20051;-92
2022/06/28 11:19:26;;;;;;;1.25;1.05;;;22.60;99.90;;;;;;4975553;28;20097;-91
2022/06/28 11:21:56;;;;;;;0.22;0.22;;;22.40;99.90;;;;;;4974325;28;20050;-91
2022/06/28 11:24:23;;;;;;;1.65;0.80;;;22.40;99.90;;;;;;4976149;28;20055;-92
2022/06/28 11:29:46;;;;;;;0.00;0.00;;;22.50;99.90;;;;;;4976218;28;20036;-91
2022/06/28 11:32:26;;;;;;;0.30;0.15;;;22.50;99.90;;;;;;4974983;28;20081;-91
2022/06/28 11:35:33;;;;;;;1.02;1.00;;;22.40;99.90;;;;;;4977495;28;20121;-92
2022/06/28 11:38:15;;;;;;;0.17;0.17;;;22.20;99.90;;;;;;4973693;28;20125;-91
2022/06/28 11:40:51;;;;;;;4.55;1.45;;;22.20;99.90;;;;;;4978636;28;20130;-91
2022/06/28 11:43:30;;;;;;;0.28;0.28;;;22.00;99.90;;;;;;4983805;28;20439;-90
2022/06/28 11:45:59;;;;;;;0.00;0.00;;;22.10;99.90;;;;;;4966741;28;20031;-91
2022/06/28 11:48:34;;;;;;;0.65;0.65;;;22.30;99.90;;;;;;4984898;28;20019;-91
2022/06/28 11:51:25;;;;;;;1.98;1.23;;;22.30;99.90;;;;;;5009429;23;20050;-73
2022/06/28 11:53:51;;;;;;;0.35;0.35;;;22.20;99.90;;;;;;4995777;28;20472;-75
2022/06/28 11:56:16;;;;;;;0.35;0.17;;;22.10;99.90;;;;;;4995546;28;20170;-74
2022/06/28 11:58:42;;;;;;;0.00;0.00;;;22.10;99.90;;;;;;4995284;28;20029;-73
2022/06/28 12:01:13;;;;;;;0.30;0.30;;;22.10;99.90;;;;;;4993824;28;20034;-73
2022/06/28 12:03:41;;;;;;;0.00;0.00;;;22.20;99.90;;;;;;4994518;28;20037;-76
2022/06/28 12:06:08;;;;;;;0.08;0.08;;;22.20;99.90;;;;;;4993857;28;20027;-75
2022/06/28 12:08:45;;;;;;;0.00;0.00;;;22.20;99.90;;;;;;4978061;28;20023;-75
2022/06/28 12:11:40;;;;;;;0.10;0.10;;;22.10;99.90;;;;;;4995411;28;20221;-76
2022/06/28 12:14:15;;;;;;;0.10;0.10;;;22.10;99.90;;;;;;4995546;28;20038;-76
2022/06/28 12:16:43;;;;;;;0.00;0.00;;;22.10;99.90;;;;;;4995612;28;20058;-75
2022/06/28 12:19:14;;;;;;;0.65;0.65;;;22.00;99.90;;;;;;4994028;28;20557;-76
2022/06/28 12:21:58;;;;;;;0.10;0.10;;;21.90;99.90;;;;;;4993910;28;20129;-76
2022/06/28 12:24:47;;;;;;;0.05;0.05;;;21.90;99.90;;;;;;4977724;28;20065;-77
2022/06/28 12:27:16;;;;;;;0.00;0.00;;;21.80;99.90;;;;;;4995197;28;20390;-77
2022/06/28 12:29:42;;;;;;;0.20;0.20;;;21.80;99.90;;;;;;4977468;28;20061;-77
2022/06/28 12:32:09;;;;;;;0.00;0.00;;;21.80;99.90;;;;;;4995131;28;20057;-76
2022/06/28 12:34:35;;;;;;;2.33;0.68;;;21.80;99.90;;;;;;4994976;28;20022;-77
2022/06/28 12:37:02;;;;;;;0.13;0.13;;;21.70;99.90;;;;;;4995356;28;20054;-76
2022/06/28 12:39:28;;;;;;;1.17;1.00;;;21.70;99.90;;;;;;4984546;28;20082;-77
2022/06/28 12:41:53;;;;;;;0.20;0.20;;;21.80;99.90;;;;;;4974530;28;20039;-77
2022/06/28 12:44:19;;;;;;;1.48;1.38;;;21.90;99.90;;;;;;4974367;28;20034;-77
2022/06/28 12:46:45;;;;;;;0.20;0.20;;;21.80;99.90;;;;;;4975493;28;20097;-77
2022/06/28 12:49:11;;;;;;;0.00;0.00;;;21.80;99.90;;;;;;4975272;28;20027;-77
2022/06/28 12:51:37;;;;;;;0.10;0.10;;;21.90;99.90;;;;;;4975124;28;20038;-77
2022/06/28 12:54:03;;;;;;;0.10;0.10;;;21.90;99.90;;;;;;4957891;28;20435;-77
2022/06/28 12:56:29;;;;;;;0.00;0.00;;;22.00;99.90;;;;;;4975226;28;20086;-76
2022/06/28 12:58:58;;;;;;;0.20;0.20;;;22.00;99.90;;;;;;4975112;28;20073;-76
2022/06/28 13:01:24;;;;;;;0.00;0.00;;;22.10;99.90;;;;;;4974066;28;20057;-76
2022/06/28 13:03:51;;;;;;;0.00;0.00;;;22.20;99.90;;;;;;4973992;28;20030;-75
2022/06/28 13:06:17;;;;;;;0.10;0.10;;;21.80;99.90;;;;;;4973799;28;20026;-76
2022/06/28 13:08:43;;;;;;;0.10;0.10;;;21.70;99.90;;;;;;4975485;28;20029;-76
2022/06/28 13:11:12;;;;;;;0.00;0.00;;;21.70;99.90;;;;;;4975180;28;20488;-76
2022/06/28 13:13:37;;;;;;;0.10;0.10;;;21.60;99.90;;;;;;4975125;28;20027;-76
2022/06/28 13:16:04;;;;;;;0.00;0.00;;;21.60;99.90;;;;;;4974877;28;20542;-76